Time;durP1;ratioP1;P1;durP2;ratioP2;P2;SDS_P1;SDS_P2;PMS_P1;PMS_P2;Temp;Humidity;BMP_temperature;BMP_pressure;BME280_temperature;BME280_humidity;BME280_pressure;Samples;Min_cycle;Max_cycle;Signal;HPM_P1;HPM_P2
2022/07/14 00:00:45;;;;;;;19.65;11.35;;;;;;;31.10;35.56;100201.38;5009082;28;20038;-69
2022/07/14 00:03:12;;;;;;;19.95;12.77;;;;;;;31.03;35.48;100181.25;5006941;28;20508;-69
2022/07/14 00:05:39;;;;;;;17.33;12.60;;;;;;;31.22;35.40;100214.44;5005552;28;20113;-71
2022/07/14 00:08:05;;;;;;;13.70;11.05;;;;;;;31.08;35.26;100175.03;5010950;28;20140;-72
2022/07/14 00:10:33;;;;;;;21.65;11.25;;;;;;;31.41;34.74;100215.84;5006713;28;20399;-72
2022/07/14 00:12:59;;;;;;;16.73;12.68;;;;;;;31.30;35.35;100187.13;5004367;28;20149;-74
2022/07/14 00:15:29;;;;;;;16.60;11.85;;;;;;;31.56;34.20;100200.00;5012453;28;20133;-77
2022/07/14 00:17:58;;;;;;;17.70;11.40;;;;;;;31.67;34.90;100202.75;5008140;28;20096;-74
2022/07/14 00:20:25;;;;;;;21.88;12.63;;;;;;;31.58;34.38;100197.47;5001862;28;20046;-72
2022/07/14 00:22:53;;;;;;;21.55;12.02;;;;;;;31.52;34.49;100193.44;5009729;28;20073;-73
2022/07/14 00:25:20;;;;;;;17.27;11.38;;;;;;;31.44;35.34;100206.34;5006938;28;20124;-73
2022/07/14 00:27:47;;;;;;;19.58;11.57;;;;;;;31.17;35.17;100186.84;5002982;28;20108;-74
2022/07/14 00:30:14;;;;;;;12.15;8.02;;;;;;;31.16;35.26;100211.19;5004195;28;20152;-72
2022/07/14 00:32:41;;;;;;;15.50;10.98;;;;;;;30.97;35.53;100203.16;5004950;28;20073;-71
2022/07/14 00:35:09;;;;;;;12.98;8.70;;;;;;;30.87;34.99;100213.56;5007607;28;20558;-71
2022/07/14 00:37:35;;;;;;;18.73;11.13;;;;;;;30.89;35.07;100209.00;5003755;28;20584;-73
2022/07/14 00:40:04;;;;;;;9.48;7.20;;;;;;;30.94;35.51;100199.09;5005819;28;20077;-69
2022/07/14 00:42:34;;;;;;;13.25;9.52;;;;;;;31.16;34.92;100202.53;5007251;28;20088;-70
2022/07/14 00:45:09;;;;;;;14.20;8.73;;;;;;;31.41;33.92;100208.00;5010548;28;20129;-70
2022/07/14 00:47:37;;;;;;;18.00;11.68;;;;;;;31.56;34.17;100194.22;5004260;28;20078;-69
2022/07/14 00:50:06;;;;;;;11.73;8.75;;;;;;;31.64;33.96;100198.63;5007527;28;20058;-71
2022/07/14 00:52:39;;;;;;;15.90;11.15;;;;;;;31.61;33.97;100185.06;5005754;28;20108;-71
2022/07/14 00:55:08;;;;;;;19.90;11.52;;;;;;;31.73;34.04;100201.81;5009332;28;20495;-71
2022/07/14 00:57:36;;;;;;;14.82;9.60;;;;;;;31.85;33.61;100207.00;5009439;28;20064;-71
2022/07/14 01:00:05;;;;;;;14.10;10.35;;;;;;;31.93;33.01;100189.56;5007673;28;20506;-71
2022/07/14 01:02:32;;;;;;;12.15;10.05;;;;;;;32.00;33.10;100189.47;5005748;28;20085;-71
2022/07/14 01:04:59;;;;;;;21.30;11.32;;;;;;;32.07;33.30;100201.75;5007058;28;20104;-71
2022/07/14 01:07:26;;;;;;;15.07;12.18;;;;;;;32.07;33.82;100201.75;5009359;28;20137;-71
2022/07/14 01:09:52;;;;;;;15.48;10.85;;;;;;;31.90;33.80;100181.78;5004236;28;20129;-71
2022/07/14 01:12:19;;;;;;;15.30;11.32;;;;;;;31.84;33.58;100175.69;5009950;28;20537;-70
2022/07/14 01:14:46;;;;;;;15.90;9.75;;;;;;;31.93;33.51;100199.06;5008110;28;20565;-70
2022/07/14 01:17:13;;;;;;;14.90;10.70;;;;;;;31.97;33.69;100194.06;5007485;28;20136;-71
2022/07/14 01:19:40;;;;;;;14.00;9.68;;;;;;;32.06;32.92;100193.50;5006377;28;20136;-71
2022/07/14 01:22:07;;;;;;;14.13;9.73;;;;;;;32.06;33.52;100196.38;5009074;28;20085;-72
2022/07/14 01:24:35;;;;;;;18.13;11.23;;;;;;;32.02;33.50;100190.66;5003571;28;20062;-72
2022/07/14 01:27:02;;;;;;;13.60;10.38;;;;;;;32.03;33.06;100195.19;5006545;28;20603;-71
2022/07/14 01:29:29;;;;;;;10.48;7.53;;;;;;;32.00;33.04;100192.34;5009364;28;20077;-69
2022/07/14 01:31:56;;;;;;;17.23;10.88;;;;;;;32.04;33.58;100199.72;5005242;28;20100;-70
2022/07/14 01:34:23;;;;;;;16.63;11.57;;;;;;;32.13;33.03;100209.91;5009348;28;20141;-70
2022/07/14 01:36:52;;;;;;;15.43;9.68;;;;;;;32.09;32.43;100183.97;5006611;28;20078;-71
2022/07/14 01:39:19;;;;;;;14.40;10.70;;;;;;;32.30;31.64;100192.28;5009612;28;20115;-71
2022/07/14 01:41:47;;;;;;;14.55;11.05;;;;;;;32.65;32.13;100204.53;5006007;28;20496;-70
2022/07/14 01:44:13;;;;;;;15.13;10.98;;;;;;;32.68;31.82;100205.69;5007424;28;20137;-70
2022/07/14 01:46:40;;;;;;;18.50;12.23;;;;;;;32.61;31.31;100208.72;5007117;28;20589;-70
2022/07/14 01:49:08;;;;;;;20.42;12.18;;;;;;;32.78;31.90;100222.03;5008424;28;20059;-70
2022/07/14 01:51:35;;;;;;;25.83;14.90;;;;;;;32.53;31.86;100211.72;5004635;28;20128;-69
2022/07/14 01:54:04;;;;;;;22.48;15.05;;;;;;;32.45;31.94;100223.88;5001753;28;20157;-70
2022/07/14 01:56:32;;;;;;;25.63;16.23;;;;;;;32.36;32.07;100223.56;5007532;28;20053;-70
2022/07/14 01:59:00;;;;;;;20.60;15.18;;;;;;;32.21;32.52;100225.88;5010189;28;20088;-69
2022/07/14 02:01:40;;;;;;;29.80;18.02;;;;;;;32.19;32.67;100234.16;5009676;28;20448;-70
2022/07/14 02:04:13;;;;;;;30.23;19.48;;;;;;;31.93;32.57;100195.34;5003375;28;20536;-70
2022/07/14 02:06:45;;;;;;;31.50;21.70;;;;;;;31.97;32.51;100231.63;5007296;28;20073;-71
2022/07/14 02:09:12;;;;;;;39.15;25.55;;;;;;;31.75;31.92;100216.63;5009435;28;20104;-71
2022/07/14 02:14:24;;;;;;;42.30;28.35;;;;;;;31.56;31.77;100220.22;5010047;28;20081;-70
2022/07/14 02:16:52;;;;;;;41.13;28.88;;;;;;;31.53;31.86;100223.97;5006208;28;20133;-71
2022/07/14 02:19:19;;;;;;;41.42;28.05;;;;;;;31.45;31.23;100239.72;5003501;28;20157;-70
2022/07/14 02:21:47;;;;;;;46.80;30.48;;;;;;;31.36;31.18;100238.16;5007312;28;20081;-71
2022/07/14 02:24:13;;;;;;;46.05;32.55;;;;;;;31.24;31.43;100215.59;5009944;28;20140;-70
2022/07/14 02:26:41;;;;;;;49.88;34.97;;;;;;;31.31;31.03;100235.72;5004991;28;20117;-72
2022/07/14 02:29:08;;;;;;;41.13;32.90;;;;;;;31.25;31.45;100227.97;4998092;28;20082;-71
2022/07/14 02:31:35;;;;;;;45.92;34.97;;;;;;;31.19;30.77;100213.22;5002839;28;20124;-72
2022/07/14 02:34:03;;;;;;;50.10;35.75;;;;;;;31.12;31.04;100204.66;5000494;28;20081;-75
2022/07/14 02:36:30;;;;;;;48.22;35.47;;;;;;;31.22;31.09;100237.50;5006083;28;20046;-75
2022/07/14 02:38:57;;;;;;;48.80;36.33;;;;;;;31.10;31.03;100224.44;5009950;28;20504;-70
2022/07/14 02:41:24;;;;;;;47.78;36.95;;;;;;;31.26;30.70;100249.81;5010205;28;20085;-70
2022/07/14 02:43:51;;;;;;;49.60;33.97;;;;;;;31.10;31.59;100221.56;5005224;28;20129;-70
2022/07/14 02:46:18;;;;;;;54.42;37.22;;;;;;;31.22;31.73;100240.38;5008822;28;20073;-69
2022/07/14 02:48:45;;;;;;;42.42;31.42;;;;;;;31.19;32.66;100235.47;5004237;28;20125;-70
2022/07/14 02:51:12;;;;;;;48.55;33.67;;;;;;;31.24;31.99;100243.63;5006105;28;20498;-70
2022/07/14 02:53:39;;;;;;;55.30;38.45;;;;;;;31.15;31.63;100238.41;5002944;28;20560;-70
2022/07/14 02:56:06;;;;;;;55.72;40.05;;;;;;;31.12;31.58;100227.72;5009889;28;20157;-71
2022/07/14 02:58:34;;;;;;;56.88;41.00;;;;;;;31.15;31.01;100238.41;4996984;28;20708;-70
2022/07/14 03:01:08;;;;;;;51.03;39.17;;;;;;;31.13;30.75;100232.22;5005065;28;20407;-71
2022/07/14 03:03:37;;;;;;;51.92;39.33;;;;;;;31.01;31.45;100222.06;5006872;28;20050;-73
2022/07/14 03:06:16;;;;;;;53.92;37.83;;;;;;;30.96;31.68;100219.66;5005571;28;20050;-72
2022/07/14 03:08:44;;;;;;;50.80;38.58;;;;;;;30.96;31.35;100222.53;5009523;28;20089;-73
2022/07/14 03:11:11;;;;;;;62.03;39.90;;;;;;;30.90;31.17;100216.41;5002692;28;20054;-74
2022/07/14 03:13:39;;;;;;;53.38;39.33;;;;;;;30.87;31.45;100214.41;5008855;28;20163;-74
2022/07/14 03:16:08;;;;;;;57.30;41.95;;;;;;;30.73;31.19;100205.84;5007874;28;20527;-72
2022/07/14 03:18:39;;;;;;;56.38;42.05;;;;;;;30.76;30.46;100205.03;5001171;28;20061;-71
2022/07/14 03:21:08;;;;;;;51.03;38.42;;;;;;;30.85;31.67;100216.06;5008173;28;20050;-70
2022/07/14 03:23:36;;;;;;;51.60;39.25;;;;;;;30.79;30.94;100215.69;5009664;28;20111;-71
2022/07/14 03:26:04;;;;;;;59.13;44.03;;;;;;;30.68;31.56;100203.44;5006470;28;20050;-71
2022/07/14 03:28:31;;;;;;;58.80;43.35;;;;;;;30.82;30.90;100237.91;5006585;28;20140;-72
2022/07/14 03:30:59;;;;;;;56.40;42.05;;;;;;;30.72;31.28;100227.28;5010013;28;20133;-72
2022/07/14 03:33:26;;;;;;;63.63;42.08;;;;;;;30.66;31.06;100221.13;4999606;28;20053;-70
2022/07/14 03:35:53;;;;;;;56.67;43.03;;;;;;;30.65;31.12;100238.88;5013258;28;20408;-72
2022/07/14 03:38:20;;;;;;;55.17;41.95;;;;;;;30.64;31.33;100231.47;5007981;28;20057;-73
2022/07/14 03:41:04;;;;;;;52.97;40.67;;;;;;;30.53;31.80;100222.94;5007174;28;20049;-72
2022/07/14 03:43:33;;;;;;;56.92;41.72;;;;;;;30.44;31.97;100229.16;5005461;28;20054;-71
2022/07/14 03:46:00;;;;;;;54.83;39.03;;;;;;;30.36;32.34;100216.09;5010307;28;20129;-72
2022/07/14 03:48:27;;;;;;;49.42;38.40;;;;;;;30.34;32.44;100206.22;5011546;28;20054;-72
2022/07/14 03:50:53;;;;;;;50.15;39.33;;;;;;;30.38;32.28;100221.41;5009606;28;20459;-72
2022/07/14 03:53:20;;;;;;;53.20;40.03;;;;;;;30.29;32.58;100203.78;5004387;28;20125;-73
2022/07/14 03:55:47;;;;;;;55.13;41.10;;;;;;;30.36;32.02;100209.47;5011229;28;20379;-70
2022/07/14 03:58:18;;;;;;;60.85;40.05;;;;;;;30.32;32.13;100208.69;5001583;28;20085;-70
2022/07/14 04:00:45;;;;;;;59.90;39.97;;;;;;;30.38;32.74;100216.47;5009611;28;20049;-71
2022/07/14 04:03:12;;;;;;;54.33;40.28;;;;;;;30.35;32.79;100225.94;5008304;28;20056;-70
2022/07/14 04:05:39;;;;;;;54.03;39.85;;;;;;;30.23;32.49;100206.31;5000492;28;20136;-70
2022/07/14 04:08:06;;;;;;;61.40;42.08;;;;;;;30.12;32.71;100200.59;5007088;28;20091;-74
2022/07/14 04:10:33;;;;;;;51.42;39.47;;;;;;;30.05;32.74;100206.41;5013136;28;20532;-74
2022/07/14 04:13:00;;;;;;;51.38;40.30;;;;;;;30.07;32.90;100220.38;5009854;28;20077;-73
2022/07/14 04:15:28;;;;;;;57.22;39.90;;;;;;;30.04;32.96;100233.56;4999567;28;20089;-73
2022/07/14 04:17:55;;;;;;;51.10;39.63;;;;;;;30.05;33.10;100240.13;5005316;28;20498;-70
2022/07/14 04:20:23;;;;;;;56.70;39.78;;;;;;;30.02;33.33;100232.34;5005633;28;20794;-73
2022/07/14 04:22:51;;;;;;;54.47;40.65;;;;;;;29.83;33.49;100202.84;5009632;28;20092;-73
2022/07/14 04:25:18;;;;;;;53.83;39.97;;;;;;;29.94;33.76;100222.94;5013862;28;20099;-73
2022/07/14 04:27:45;;;;;;;56.28;38.72;;;;;;;29.82;33.12;100206.97;5011287;28;20133;-74
2022/07/14 04:30:13;;;;;;;52.15;37.17;;;;;;;29.95;33.33;100221.72;5012157;28;20088;-73
2022/07/14 04:32:41;;;;;;;58.10;38.93;;;;;;;29.84;33.34;100206.53;5009932;28;20129;-73
2022/07/14 04:35:08;;;;;;;58.28;40.33;;;;;;;30.02;33.09;100227.41;5013036;28;20054;-72
2022/07/14 04:37:35;;;;;;;54.72;39.88;;;;;;;29.81;33.49;100213.97;5010815;28;20050;-71
2022/07/14 04:40:03;;;;;;;58.50;42.15;;;;;;;29.91;33.75;100232.41;5009737;28;20093;-71
2022/07/14 04:42:30;;;;;;;61.28;41.88;;;;;;;29.92;33.66;100249.28;5008252;28;20104;-71
2022/07/14 04:44:57;;;;;;;55.50;40.70;;;;;;;29.88;33.75;100236.97;5008481;28;20097;-71
2022/07/14 04:47:24;;;;;;;55.67;40.58;;;;;;;29.73;33.79;100223.88;5002745;28;20081;-72
2022/07/14 04:52:47;;;;;;;55.65;39.83;;;;;;;29.75;33.87;100215.66;5010026;28;20092;-70
2022/07/14 04:55:15;;;;;;;57.22;41.00;;;;;;;29.79;34.17;100225.09;5005168;28;20054;-70
2022/07/14 04:57:43;;;;;;;55.83;41.55;;;;;;;29.72;33.61;100210.75;5012152;28;20062;-70
2022/07/14 05:00:11;;;;;;;58.40;42.88;;;;;;;29.81;33.92;100219.72;5004300;28;20050;-71
2022/07/14 05:02:38;;;;;;;59.03;40.13;;;;;;;29.86;34.03;100233.69;5010353;28;20050;-73
2022/07/14 05:05:06;;;;;;;59.85;43.00;;;;;;;29.89;33.86;100224.22;5003513;28;20101;-71
2022/07/14 05:07:33;;;;;;;57.47;43.38;;;;;;;29.76;33.91;100205.78;5009670;28;20078;-71
2022/07/14 05:10:00;;;;;;;60.97;40.35;;;;;;;29.60;34.17;100191.88;5001445;28;20137;-67
2022/07/14 05:12:27;;;;;;;54.15;40.70;;;;;;;29.89;34.35;100227.09;5008034;28;20137;-72
2022/07/14 05:14:54;;;;;;;54.88;42.30;;;;;;;29.86;34.17;100219.28;5013070;28;20050;-71
2022/07/14 05:17:22;;;;;;;57.38;41.67;;;;;;;29.99;34.10;100243.47;5012044;28;20505;-71
2022/07/14 05:19:51;;;;;;;55.97;41.78;;;;;;;29.95;34.44;100242.69;5010369;28;20050;-71
2022/07/14 05:22:18;;;;;;;56.53;42.30;;;;;;;29.95;34.15;100248.44;5007098;28;20564;-70
2022/07/14 05:24:45;;;;;;;57.85;42.30;;;;;;;29.84;34.94;100244.78;5006301;28;20516;-70
2022/07/14 05:27:12;;;;;;;55.38;40.42;;;;;;;29.73;35.52;100233.34;5003462;28;20058;-71
2022/07/14 05:29:40;;;;;;;53.75;40.97;;;;;;;29.63;35.97;100225.56;5004538;28;20136;-69
2022/07/14 05:32:08;;;;;;;60.85;41.28;;;;;;;29.58;35.57;100239.56;5006784;28;20042;-70
2022/07/14 05:34:43;;;;;;;53.35;40.95;;;;;;;29.44;35.81;100223.19;5002591;28;20052;-70
2022/07/14 05:37:11;;;;;;;59.67;42.50;;;;;;;29.61;36.65;100265.47;5000440;28;20081;-72
2022/07/14 05:39:39;;;;;;;59.42;41.05;;;;;;;29.55;36.57;100280.69;5008989;28;20139;-69
2022/07/14 05:42:06;;;;;;;55.30;40.28;;;;;;;29.44;37.28;100281.53;5007057;28;20133;-69
2022/07/14 05:44:34;;;;;;;54.53;38.90;;;;;;;29.41;37.01;100285.25;4998752;28;20568;-69
2022/07/14 05:47:01;;;;;;;56.13;40.25;;;;;;;28.58;37.28;100181.13;5001782;28;20085;-69
2022/07/14 05:49:28;;;;;;;56.63;42.35;;;;;;;29.23;37.51;100293.09;5004123;28;20137;-69
2022/07/14 05:51:55;;;;;;;49.95;37.47;;;;;;;29.21;37.47;100284.06;5006981;28;20089;-75
2022/07/14 05:54:22;;;;;;;53.95;39.22;;;;;;;29.19;37.05;100283.66;5007091;28;20129;-70
2022/07/14 05:56:49;;;;;;;54.55;37.17;;;;;;;29.14;37.64;100272.59;4997488;28;20592;-72
2022/07/14 05:59:15;;;;;;;49.83;35.53;;;;;;;29.25;37.48;100290.63;4999971;28;20493;-71
2022/07/14 06:02:03;;;;;;;52.50;39.50;;;;;;;29.36;37.34;100285.66;5007459;28;20046;-71
2022/07/14 06:04:31;;;;;;;50.80;39.00;;;;;;;29.34;37.37;100276.66;5004676;28;20448;-70
2022/07/14 06:06:57;;;;;;;50.38;36.80;;;;;;;29.36;37.30;100271.28;5002086;28;20152;-70
2022/07/14 06:09:24;;;;;;;59.38;38.05;;;;;;;29.46;37.38;100292.63;4996787;28;20168;-70
2022/07/14 06:11:51;;;;;;;57.22;37.47;;;;;;;29.51;37.29;100315.22;5003296;28;20069;-71
2022/07/14 06:14:18;;;;;;;62.38;38.55;;;;;;;29.23;37.45;100264.34;4999784;28;20149;-70
2022/07/14 06:16:45;;;;;;;56.25;40.90;;;;;;;29.46;37.13;100287.69;4999559;28;20145;-71
2022/07/14 06:19:12;;;;;;;53.63;38.30;;;;;;;29.41;36.45;100281.56;5002724;28;20053;-72
2022/07/14 06:21:43;;;;;;;53.75;38.22;;;;;;;29.63;36.82;100308.22;5003474;28;20046;-71
2022/07/14 06:24:12;;;;;;;65.45;42.70;;;;;;;29.74;36.42;100317.59;4999083;28;20056;-70
2022/07/14 06:26:40;;;;;;;65.35;41.92;;;;;;;29.73;36.78;100290.06;5003295;28;20590;-71
2022/07/14 06:29:06;;;;;;;62.45;42.60;;;;;;;29.71;36.17;100272.41;5007411;28;20394;-76
2022/07/14 06:31:36;;;;;;;56.65;39.33;;;;;;;29.58;36.21;100256.84;5002040;28;20093;-73
2022/07/14 06:34:04;;;;;;;58.42;41.33;;;;;;;29.84;35.95;100307.28;5005726;28;20050;-69
2022/07/14 06:36:32;;;;;;;59.53;41.92;;;;;;;29.82;35.53;100307.72;5015623;28;20050;-72
2022/07/14 06:38:59;;;;;;;69.30;44.00;;;;;;;29.77;35.90;100293.75;5006170;28;20073;-82
2022/07/14 06:41:26;;;;;;;60.20;42.45;;;;;;;29.85;36.21;100283.03;5000850;28;20116;-73
2022/07/14 06:43:53;;;;;;;63.95;41.35;;;;;;;29.90;36.07;100279.72;4998521;28;20043;-78
2022/07/14 06:46:20;;;;;;;63.38;41.03;;;;;;;30.08;35.91;100286.19;5002023;28;20329;-71
2022/07/14 06:48:47;;;;;;;65.57;42.92;;;;;;;30.34;35.59;100307.84;4996400;28;20053;-73
2022/07/14 06:51:14;;;;;;;58.88;41.22;;;;;;;30.43;35.07;100293.00;4999780;28;20081;-73
2022/07/14 06:53:41;;;;;;;61.92;41.17;;;;;;;30.17;35.10;100254.88;4999162;28;20137;-76
2022/07/14 06:56:08;;;;;;;61.10;39.85;;;;;;;30.38;35.30;100276.97;5002837;28;20093;-74
2022/07/14 06:58:35;;;;;;;54.08;41.05;;;;;;;30.44;35.67;100262.94;5002454;28;20101;-73
2022/07/14 07:01:02;;;;;;;62.92;40.97;;;;;;;30.38;35.96;100265.44;4999991;28;20529;-73
2022/07/14 07:03:29;;;;;;;66.03;42.45;;;;;;;30.48;36.66;100274.44;5003736;28;20061;-73
2022/07/14 07:08:42;;;;;;;64.10;42.40;;;;;;;30.58;35.54;100290.81;5005308;28;20081;-74
2022/07/14 07:11:09;;;;;;;52.08;37.33;;;;;;;30.51;35.66;100290.88;5009742;28;20195;-74
2022/07/14 07:13:37;;;;;;;62.20;41.25;;;;;;;30.51;35.19;100280.16;5003473;28;20137;-73
2022/07/14 07:16:06;;;;;;;57.70;40.10;;;;;;;30.55;35.07;100269.41;5012474;28;20085;-73
2022/07/14 07:18:34;;;;;;;56.87;39.33;;;;;;;30.59;35.35;100260.75;5001547;28;20464;-74
2022/07/14 07:21:02;;;;;;;57.78;39.90;;;;;;;30.59;35.27;100243.44;5001698;28;20097;-74
2022/07/14 07:23:30;;;;;;;63.20;40.25;;;;;;;30.73;35.53;100254.03;4995786;28;20053;-75
2022/07/14 07:25:57;;;;;;;57.50;40.22;;;;;;;30.68;35.29;100243.78;5002298;28;20100;-74
2022/07/14 07:28:24;;;;;;;51.55;39.78;;;;;;;30.63;35.94;100235.59;5005208;28;20058;-75
2022/07/14 07:30:51;;;;;;;53.70;39.03;;;;;;;30.70;35.76;100229.75;5012302;28;20102;-74
2022/07/14 07:33:18;;;;;;;58.28;40.75;;;;;;;30.70;36.52;100232.63;4998687;28;20115;-74
2022/07/14 07:35:46;;;;;;;59.53;40.85;;;;;;;30.80;36.13;100223.09;5002161;28;20124;-75
2022/07/14 07:38:13;;;;;;;56.50;40.45;;;;;;;30.79;36.20;100235.06;5000950;28;20464;-75
2022/07/14 07:40:40;;;;;;;60.88;41.50;;;;;;;30.82;36.60;100260.16;5007692;28;20136;-74
2022/07/14 07:43:06;;;;;;;60.05;39.75;;;;;;;30.74;37.15;100236.31;5008713;28;20089;-74
2022/07/14 07:45:33;;;;;;;59.58;40.95;;;;;;;30.99;36.87;100243.94;5010349;28;20147;-74
2022/07/14 07:48:03;;;;;;;58.35;40.33;;;;;;;31.21;36.34;100274.16;5002981;28;20115;-75
2022/07/14 07:50:31;;;;;;;61.38;40.35;;;;;;;31.11;36.25;100280.84;4997687;28;20152;-74
2022/07/14 07:52:58;;;;;;;56.33;39.50;;;;;;;31.22;35.92;100289.44;5000852;28;20080;-73
2022/07/14 07:55:25;;;;;;;57.08;39.50;;;;;;;31.30;36.88;100273.66;5000123;28;20041;-74
2022/07/14 07:57:53;;;;;;;61.97;41.55;;;;;;;31.51;36.61;100296.53;5001048;28;20532;-74
2022/07/14 08:00:20;;;;;;;55.90;40.78;;;;;;;31.51;36.53;100295.72;5000714;28;20057;-75
2022/07/14 08:02:50;;;;;;;51.92;38.78;;;;;;;31.59;35.69;100314.56;4996260;28;20313;-74
2022/07/14 08:05:18;;;;;;;57.38;39.67;;;;;;;31.54;35.64;100317.94;5004341;28;20527;-73
2022/07/14 08:08:08;;;;;;;67.30;42.10;;;;;;;31.32;35.32;100286.44;4997513;28;20069;-74
2022/07/14 08:10:39;;;;;;;57.95;42.92;;;;;;;31.54;35.41;100309.28;5001488;28;20141;-73
2022/07/14 08:13:06;;;;;;;68.30;41.80;;;;;;;31.54;35.03;100324.53;5004325;28;21281;-74
2022/07/14 08:15:34;;;;;;;64.55;41.88;;;;;;;31.54;34.98;100321.63;5001255;28;20285;-74
2022/07/14 08:18:01;;;;;;;57.42;40.90;;;;;;;31.66;35.42;100330.97;5006678;28;20082;-74
2022/07/14 08:20:29;;;;;;;75.38;52.08;;;;;;;31.69;35.48;100335.91;5002591;28;20101;-75
2022/07/14 08:22:56;;;;;;;102.90;65.18;;;;;;;31.72;34.46;100341.63;5002210;28;20069;-74
2022/07/14 08:25:23;;;;;;;112.35;72.95;;;;;;;31.71;33.54;100351.53;5004312;28;20073;-75
2022/07/14 08:27:51;;;;;;;121.72;79.05;;;;;;;31.71;33.52;100351.53;5004923;28;20459;-75
2022/07/14 08:30:18;;;;;;;121.43;82.00;;;;;;;31.38;32.72;100306.97;4998763;28;20049;-74
2022/07/14 08:32:49;;;;;;;124.38;80.43;;;;;;;31.66;32.62;100342.53;5002943;28;20050;-75
2022/07/14 08:35:19;;;;;;;127.20;80.47;;;;;;;31.56;32.82;100327.81;5004373;28;20420;-75
2022/07/14 08:37:46;;;;;;;;;;;;;;;31.58;33.27;100364.88;5001682;28;20090;-75
2022/07/14 08:40:20;;;;;;;104.00;70.68;;;;;;;31.53;32.32;100357.53;5006151;28;20037;-74
2022/07/14 08:42:49;;;;;;;101.97;64.38;;;;;;;31.53;31.88;100360.41;5006575;28;20050;-74
2022/07/14 08:45:20;;;;;;;82.30;53.75;;;;;;;31.53;32.19;100350.94;5005184;28;20161;-74
2022/07/14 08:47:48;;;;;;;88.10;55.55;;;;;;;31.56;31.66;100368.22;5004840;28;20144;-74
2022/07/14 08:50:17;;;;;;;87.20;54.63;;;;;;;31.54;31.86;100358.34;5007973;28;20145;-75
2022/07/14 08:52:46;;;;;;;81.78;54.85;;;;;;;31.69;31.71;100362.69;5010497;28;20099;-74
2022/07/14 08:55:15;;;;;;;88.78;57.38;;;;;;;31.83;31.07;100358.81;5002383;28;20054;-75
2022/07/14 08:57:43;;;;;;;85.75;56.38;;;;;;;32.04;31.52;100334.66;5007218;28;20132;-74
2022/07/14 09:00:19;;;;;;;81.13;54.38;;;;;;;32.61;30.68;100356.97;4998078;28;20157;-74
2022/07/14 09:02:52;;;;;;;76.18;48.28;;;;;;;32.92;30.19;100349.00;5007139;28;20053;-72
2022/07/14 09:05:44;;;;;;;75.30;50.63;;;;;;;33.32;29.67;100320.22;5001644;28;20057;-74
2022/07/14 09:08:13;;;;;;;69.65;48.42;;;;;;;33.94;29.53;100338.03;5007710;28;20137;-72
2022/07/14 09:10:42;;;;;;;75.65;49.15;;;;;;;34.23;28.46;100331.66;5006232;28;20401;-73
2022/07/14 09:13:31;;;;;;;74.25;47.40;;;;;;;34.43;28.06;100335.31;5002128;28;20056;-72
2022/07/14 09:16:24;;;;;;;74.88;48.65;;;;;;;34.46;28.75;100322.78;5008968;28;20074;-72
2022/07/14 09:19:03;;;;;;;75.63;49.00;;;;;;;34.50;28.49;100335.13;5000959;28;20053;-72
2022/07/14 09:21:31;;;;;;;73.00;48.03;;;;;;;34.49;27.90;100332.69;4998728;28;20077;-72
2022/07/14 09:23:58;;;;;;;75.97;51.80;;;;;;;34.32;27.78;100334.72;5002662;28;20523;-72
2022/07/14 09:26:25;;;;;;;73.70;52.72;;;;;;;34.19;28.51;100349.94;4999937;28;20432;-72
2022/07/14 09:28:53;;;;;;;84.25;53.78;;;;;;;33.99;28.36;100340.41;5005305;28;20132;-73
2022/07/14 09:31:23;;;;;;;82.10;55.33;;;;;;;33.97;28.65;100346.63;5007018;28;20128;-72
2022/07/14 09:33:52;;;;;;;82.75;57.45;;;;;;;33.88;28.65;100339.81;5007392;28;20054;-71
2022/07/14 09:36:23;;;;;;;87.47;57.85;;;;;;;33.68;29.04;100331.16;5000620;28;20057;-71
2022/07/14 09:38:50;;;;;;;102.68;62.83;;;;;;;33.69;29.44;100339.38;5005489;28;20055;-71
2022/07/14 09:41:18;;;;;;;85.60;56.70;;;;;;;33.78;30.77;100341.69;5004738;28;20417;-70
2022/07/14 09:44:09;;;;;;;62.38;46.58;;;;;;;33.82;29.36;100330.84;5009540;28;20129;-73
2022/07/14 09:46:54;;;;;;;72.22;48.63;;;;;;;34.03;29.52;100337.47;4998887;28;20085;-71
2022/07/14 09:49:27;;;;;;;44.92;28.95;;;;;;;34.03;28.73;100357.75;4997788;28;20133;-71
2022/07/14 09:51:56;;;;;;;39.03;28.73;;;;;;;33.95;28.51;100354.97;5003018;28;20402;-71
2022/07/14 09:54:43;;;;;;;49.17;31.90;;;;;;;33.80;28.37;100335.44;5002666;28;20081;-72
2022/07/14 09:57:24;;;;;;;37.03;25.50;;;;;;;33.84;28.56;100334.09;5005074;28;20077;-72
2022/07/14 10:00:16;;;;;;;37.30;22.50;;;;;;;33.80;28.74;100320.97;5004961;28;20108;-72
2022/07/14 10:02:43;;;;;;;36.10;22.45;;;;;;;33.75;28.33;100341.78;5002868;28;20096;-72
2022/07/14 10:05:13;;;;;;;37.83;24.92;;;;;;;33.78;28.28;100367.75;5002982;28;20501;-73
2022/07/14 10:07:47;;;;;;;33.90;21.48;;;;;;;33.87;27.92;100349.78;5008059;28;20417;-71
2022/07/14 10:10:22;;;;;;;24.73;17.02;;;;;;;34.01;27.91;100355.28;4999882;28;20251;-72
2022/07/14 10:12:50;;;;;;;28.10;17.30;;;;;;;34.16;27.73;100368.22;4994955;28;20054;-72
2022/07/14 10:15:18;;;;;;;25.52;17.00;;;;;;;34.05;27.50;100350.22;5001637;28;20120;-72
2022/07/14 10:17:44;;;;;;;29.98;16.95;;;;;;;34.49;27.05;100368.28;4999359;28;20769;-73
2022/07/14 10:20:13;;;;;;;20.90;14.38;;;;;;;34.82;26.41;100368.38;5005054;28;20133;-72
2022/07/14 10:22:41;;;;;;;23.48;16.17;;;;;;;34.96;26.15;100367.19;5001627;28;20054;-74
2022/07/14 10:25:09;;;;;;;24.55;14.07;;;;;;;35.07;26.05;100354.06;4999023;28;20245;-72
2022/07/14 10:27:43;;;;;;;27.83;15.75;;;;;;;35.25;25.83;100370.19;5000437;28;20419;-71
2022/07/14 10:30:11;;;;;;;29.08;16.73;;;;;;;35.34;26.44;100364.56;5003282;28;20137;-71
2022/07/14 10:32:56;;;;;;;26.40;15.10;;;;;;;35.68;26.33;100381.47;5006479;28;20538;-72
2022/07/14 10:35:50;;;;;;;20.55;15.30;;;;;;;36.08;26.26;100381.19;4999904;28;20065;-71
2022/07/14 10:38:38;;;;;;;27.15;17.92;;;;;;;36.39;25.79;100352.41;5000612;28;20116;-71
2022/07/14 10:41:16;;;;;;;33.58;15.35;;;;;;;36.88;25.74;100366.63;5004953;28;20085;-72
2022/07/14 10:44:31;;;;;;;21.00;14.60;;;;;;;36.97;25.75;100357.22;5002798;28;20133;-72
2022/07/14 10:47:09;;;;;;;24.25;13.90;;;;;;;36.45;25.96;100350.56;4999891;28;20053;-71
2022/07/14 10:49:59;;;;;;;25.40;15.60;;;;;;;36.62;26.74;100359.19;5002970;28;20060;-71
2022/07/14 10:52:29;;;;;;;19.90;14.57;;;;;;;37.12;25.97;100361.25;4996959;28;20050;-73
2022/07/14 10:55:12;;;;;;;25.00;16.15;;;;;;;37.56;25.82;100363.50;4994711;28;20081;-73
2022/07/14 10:57:59;;;;;;;32.45;17.13;;;;;;;37.72;25.29;100369.13;4998316;28;20587;-73
2022/07/14 11:00:39;;;;;;;23.38;15.77;;;;;;;37.97;24.90;100365.31;4997202;28;20196;-72
2022/07/14 11:03:39;;;;;;;26.73;14.82;;;;;;;38.11;25.13;100332.69;4995803;28;20694;-73
2022/07/14 11:06:09;;;;;;;20.88;14.85;;;;;;;38.52;24.92;100376.53;4997022;28;20054;-72
2022/07/14 11:09:29;;;;;;;25.33;16.02;;;;;;;38.74;25.10;100359.75;4998723;28;20133;-73
2022/07/14 11:12:10;;;;;;;21.25;16.70;;;;;;;38.94;24.20;100352.69;4999384;28;20121;-73
2022/07/14 11:14:40;;;;;;;20.75;15.07;;;;;;;39.03;24.12;100347.69;4998476;28;20817;-72
2022/07/14 11:17:28;;;;;;;21.55;16.10;;;;;;;38.96;23.96;100341.38;5001207;28;20524;-73
2022/07/14 11:19:55;;;;;;;22.73;15.45;;;;;;;39.01;23.73;100343.63;5004363;28;20148;-73
2022/07/14 11:22:23;;;;;;;24.52;14.10;;;;;;;39.09;23.78;100351.63;4998041;28;20141;-73
2022/07/14 11:24:58;;;;;;;18.50;13.05;;;;;;;39.14;22.93;100358.91;4999785;28;20142;-72
2022/07/14 11:27:47;;;;;;;23.38;12.50;;;;;;;38.88;22.83;100340.06;5001465;28;20143;-72
2022/07/14 11:30:18;;;;;;;;;;;;;;;38.66;24.23;100355.50;5001635;28;20077;-72